Time;durP1;ratioP1;P1;durP2;ratioP2;P2;SDS_P1;SDS_P2;PMS_P1;PMS_P2;Temp;Humidity;BMP_temperature;BMP_pressure;BME280_temperature;BME280_humidity;BME280_pressure;Samples;Min_cycle;Max_cycle;Signal;HPM_P1;HPM_P2
2024/03/08 00:00:59;;;;;;;34.15;18.38;;;;;;;;;;5079443;28;20770;-74
2024/03/08 00:03:26;;;;;;;25.10;15.32;;;;;;;;;;5059541;28;20048;-75
2024/03/08 00:05:53;;;;;;;27.77;15.75;;;;;;;;;;5075304;28;20479;-74
2024/03/08 00:08:19;;;;;;;29.40;16.15;;;;;;;;;;5073560;28;20052;-74
2024/03/08 00:10:46;;;;;;;29.02;16.33;;;;;;;;;;5079526;28;20439;-75
2024/03/08 00:13:12;;;;;;;29.52;15.98;;;;;;;;;;5055863;28;20059;-74
2024/03/08 00:15:41;;;;;;;28.15;15.95;;;;;;;;;;5086863;28;20052;-75
2024/03/08 00:18:07;;;;;;;29.13;15.68;;;;;;;;;;5081055;28;20094;-74
2024/03/08 00:20:34;;;;;;;30.55;16.98;;;;;;;;;;5067249;28;20048;-74
2024/03/08 00:23:00;;;;;;;33.10;15.40;;;;;;;;;;5061499;28;20098;-74
2024/03/08 00:25:27;;;;;;;32.28;17.58;;;;;;;;;;5075599;28;20131;-75
2024/03/08 00:27:55;;;;;;;33.28;15.98;;;;;;;;;;5076842;28;20639;-74
2024/03/08 00:30:23;;;;;;;28.42;15.68;;;;;;;;;;5086427;28;20047;-74
2024/03/08 00:32:49;;;;;;;29.42;15.98;;;;;;;;;;5078231;28;20152;-75
2024/03/08 00:35:16;;;;;;;28.60;16.15;;;;;;;;;;5079238;28;20105;-74
2024/03/08 00:37:42;;;;;;;26.30;15.32;;;;;;;;;;5071645;28;20044;-74
2024/03/08 00:40:09;;;;;;;27.08;15.27;;;;;;;;;;5083233;28;20075;-74
2024/03/08 00:42:38;;;;;;;27.35;16.15;;;;;;;;;;5057502;28;20060;-74
2024/03/08 00:45:04;;;;;;;30.10;16.15;;;;;;;;;;5074735;28;20424;-74
2024/03/08 00:47:31;;;;;;;25.55;15.15;;;;;;;;;;5079140;28;20111;-74
2024/03/08 00:49:57;;;;;;;24.77;15.50;;;;;;;;;;5075494;28;20075;-73
2024/03/08 00:52:24;;;;;;;26.40;15.65;;;;;;;;;;5082997;28;20126;-74
2024/03/08 00:54:50;;;;;;;27.90;16.50;;;;;;;;;;5072345;28;20055;-75
2024/03/08 00:57:16;;;;;;;27.95;16.38;;;;;;;;;;5078620;28;20051;-75
2024/03/08 00:59:43;;;;;;;27.40;15.65;;;;;;;;;;5077777;28;20145;-75
2024/03/08 01:02:10;;;;;;;26.00;15.18;;;;;;;;;;5071516;28;20120;-75
2024/03/08 01:04:37;;;;;;;30.88;15.10;;;;;;;;;;5081408;28;20048;-75
2024/03/08 01:07:03;;;;;;;26.65;15.52;;;;;;;;;;5078927;28;20040;-74
2024/03/08 01:09:30;;;;;;;25.15;14.88;;;;;;;;;;5076688;28;20098;-74
2024/03/08 01:11:56;;;;;;;28.17;15.02;;;;;;;;;;5064343;28;20089;-75
2024/03/08 01:14:23;;;;;;;27.55;15.98;;;;;;;;;;5056275;28;20420;-74
2024/03/08 01:16:49;;;;;;;26.42;15.52;;;;;;;;;;5079546;28;20711;-75
2024/03/08 01:19:16;;;;;;;24.17;14.25;;;;;;;;;;5072999;28;20619;-75
2024/03/08 01:21:42;;;;;;;26.88;15.07;;;;;;;;;;5064054;28;20048;-74
2024/03/08 01:24:08;;;;;;;27.15;15.35;;;;;;;;;;5082071;28;20128;-74
2024/03/08 01:26:38;;;;;;;28.42;16.42;;;;;;;;;;5054428;28;20048;-73
2024/03/08 01:29:05;;;;;;;27.00;15.05;;;;;;;;;;5077922;28;20814;-75
2024/03/08 01:31:31;;;;;;;26.95;16.83;;;;;;;;;;5077264;28;20048;-74
2024/03/08 01:33:58;;;;;;;30.88;16.50;;;;;;;;;;5066647;28;20044;-74
2024/03/08 01:36:25;;;;;;;25.15;15.30;;;;;;;;;;5083527;28;20040;-74
2024/03/08 01:38:51;;;;;;;27.80;16.00;;;;;;;;;;5076277;28;20072;-74
2024/03/08 01:41:19;;;;;;;27.40;16.17;;;;;;;;;;5079830;28;20067;-75
2024/03/08 01:43:46;;;;;;;26.70;15.60;;;;;;;;;;5071881;28;20052;-74
2024/03/08 01:46:15;;;;;;;26.60;13.95;;;;;;;;;;5081045;28;20432;-74
2024/03/08 01:48:41;;;;;;;27.33;16.27;;;;;;;;;;5073976;28;20109;-74
2024/03/08 01:51:08;;;;;;;25.02;15.73;;;;;;;;;;5082681;28;20149;-74
2024/03/08 01:53:35;;;;;;;26.83;16.55;;;;;;;;;;5078137;28;20565;-74
2024/03/08 01:56:02;;;;;;;24.50;14.80;;;;;;;;;;5073320;28;20044;-75
2024/03/08 01:58:29;;;;;;;31.27;16.73;;;;;;;;;;5061810;28;20118;-74
2024/03/08 02:00:56;;;;;;;28.90;17.13;;;;;;;;;;5081364;28;20048;-74
2024/03/08 02:03:23;;;;;;;26.27;15.75;;;;;;;;;;5082477;28;20485;-74
2024/03/08 02:05:51;;;;;;;28.73;15.90;;;;;;;;;;5086822;28;20104;-74
2024/03/08 02:08:18;;;;;;;27.98;15.55;;;;;;;;;;5074435;28;20080;-75
2024/03/08 02:10:44;;;;;;;27.30;16.98;;;;;;;;;;5049602;28;20036;-74
2024/03/08 02:13:11;;;;;;;28.45;17.58;;;;;;;;;;5050009;28;20135;-71
2024/03/08 02:16:07;;;;;;;28.02;18.10;;;;;;;;;;5082629;28;20488;-71
2024/03/08 02:18:35;;;;;;;26.85;16.35;;;;;;;;;;5078102;28;20059;-71
2024/03/08 02:21:03;;;;;;;27.55;17.25;;;;;;;;;;5066841;28;20076;-71
2024/03/08 02:23:29;;;;;;;28.00;18.15;;;;;;;;;;5071377;28;20055;-71
2024/03/08 02:25:56;;;;;;;30.27;17.08;;;;;;;;;;5082979;28;20051;-72
2024/03/08 02:28:24;;;;;;;30.80;17.60;;;;;;;;;;5082941;28;20045;-71
2024/03/08 02:30:54;;;;;;;26.98;15.77;;;;;;;;;;5064630;28;20048;-72
2024/03/08 02:33:21;;;;;;;30.65;17.70;;;;;;;;;;5080596;28;20135;-73
2024/03/08 02:35:48;;;;;;;29.02;17.75;;;;;;;;;;5085856;28;20056;-70
2024/03/08 02:38:18;;;;;;;24.30;16.33;;;;;;;;;;5082229;28;20056;-70
2024/03/08 02:40:45;;;;;;;29.00;17.95;;;;;;;;;;5085468;28;20063;-71
2024/03/08 02:43:12;;;;;;;29.98;17.48;;;;;;;;;;5083834;28;20090;-71
2024/03/08 02:45:39;;;;;;;28.00;17.15;;;;;;;;;;5085856;28;20549;-69
2024/03/08 02:48:08;;;;;;;24.55;15.90;;;;;;;;;;5083835;28;20097;-70
2024/03/08 02:50:34;;;;;;;26.00;16.48;;;;;;;;;;5086527;28;20044;-71
2024/03/08 02:53:01;;;;;;;27.70;16.15;;;;;;;;;;5065693;28;20036;-71
2024/03/08 02:55:28;;;;;;;27.45;18.63;;;;;;;;;;5064017;28;20486;-72
2024/03/08 02:57:54;;;;;;;26.58;17.13;;;;;;;;;;5084992;28;20135;-72
2024/03/08 03:00:23;;;;;;;27.08;17.08;;;;;;;;;;5066571;28;20044;-71
2024/03/08 03:02:55;;;;;;;25.92;17.02;;;;;;;;;;5069541;28;20050;-71
2024/03/08 03:05:23;;;;;;;28.83;17.08;;;;;;;;;;5071856;28;20048;-71
2024/03/08 03:07:50;;;;;;;23.67;16.08;;;;;;;;;;5062040;28;20083;-71
2024/03/08 03:10:17;;;;;;;26.85;17.50;;;;;;;;;;5065231;28;20083;-72
2024/03/08 03:12:45;;;;;;;25.95;16.50;;;;;;;;;;5065593;28;20492;-71
2024/03/08 03:15:12;;;;;;;26.55;17.55;;;;;;;;;;5085885;28;20410;-71
2024/03/08 03:17:40;;;;;;;24.60;16.38;;;;;;;;;;5085122;28;20063;-73
2024/03/08 03:20:12;;;;;;;28.88;18.23;;;;;;;;;;5081974;28;20051;-71
2024/03/08 03:22:40;;;;;;;27.58;16.70;;;;;;;;;;5085235;28;20105;-70
2024/03/08 03:25:09;;;;;;;26.67;16.73;;;;;;;;;;5084220;28;20051;-73
2024/03/08 03:27:36;;;;;;;;;;;;;;;;;;5090230;28;20540;-73
2024/03/08 03:30:20;;;;;;;30.88;17.88;;;;;;;;;;5067495;28;19924;-71
2024/03/08 03:32:50;;;;;;;28.27;16.95;;;;;;;;;;5092803;28;20054;-71
2024/03/08 03:35:18;;;;;;;26.98;16.35;;;;;;;;;;5081127;28;20040;-73
2024/03/08 03:37:51;;;;;;;29.25;17.63;;;;;;;;;;5083237;28;20044;-71
2024/03/08 03:40:20;;;;;;;28.10;17.05;;;;;;;;;;5079198;28;20040;-72
2024/03/08 03:42:46;;;;;;;29.35;18.45;;;;;;;;;;5077793;28;20080;-72
2024/03/08 03:45:14;;;;;;;27.00;17.38;;;;;;;;;;5085785;28;20103;-72
2024/03/08 03:47:43;;;;;;;27.00;17.27;;;;;;;;;;5063006;28;20071;-71
2024/03/08 03:50:09;;;;;;;;;;;;;;;;;;5084121;28;20052;-71
2024/03/08 03:52:36;;;;;;;28.92;17.50;;;;;;;;;;5099800;28;20737;-70
2024/03/08 03:55:04;;;;;;;29.73;17.67;;;;;;;;;;5083160;28;20068;-72
2024/03/08 03:57:31;;;;;;;28.52;17.55;;;;;;;;;;5069251;28;20052;-70
2024/03/08 03:59:58;;;;;;;28.40;17.80;;;;;;;;;;5048675;28;20075;-72
2024/03/08 04:02:26;;;;;;;30.80;19.00;;;;;;;;;;5070796;28;20393;-70
2024/03/08 04:04:54;;;;;;;30.73;16.88;;;;;;;;;;5079444;28;20058;-71
2024/03/08 04:07:21;;;;;;;29.67;17.90;;;;;;;;;;5082339;28;20060;-72
2024/03/08 04:09:47;;;;;;;33.55;19.15;;;;;;;;;;5066995;28;20466;-72
2024/03/08 04:12:15;;;;;;;29.45;18.42;;;;;;;;;;5065275;28;20055;-70
2024/03/08 04:14:42;;;;;;;29.57;18.33;;;;;;;;;;5067448;28;20054;-72
2024/03/08 04:17:08;;;;;;;22.50;15.38;;;;;;;;;;5082588;28;20094;-73
2024/03/08 04:19:35;;;;;;;32.83;19.40;;;;;;;;;;5072449;28;20052;-72
2024/03/08 04:22:02;;;;;;;28.95;18.52;;;;;;;;;;5084896;28;20052;-72
2024/03/08 04:24:30;;;;;;;30.33;18.45;;;;;;;;;;5067158;28;20698;-72
2024/03/08 04:26:57;;;;;;;27.98;17.52;;;;;;;;;;5079782;28;20538;-72
2024/03/08 04:29:24;;;;;;;27.67;18.27;;;;;;;;;;5075605;28;20063;-71
2024/03/08 04:31:54;;;;;;;30.27;17.75;;;;;;;;;;5080638;28;20056;-71
2024/03/08 04:34:23;;;;;;;28.70;18.25;;;;;;;;;;5080901;28;20098;-75
2024/03/08 04:36:50;;;;;;;27.48;18.10;;;;;;;;;;5053808;28;20047;-74
2024/03/08 04:39:18;;;;;;;29.55;18.85;;;;;;;;;;5076933;28;20084;-74
2024/03/08 04:41:45;;;;;;;28.90;16.92;;;;;;;;;;5075529;28;20399;-74
2024/03/08 04:44:12;;;;;;;28.92;17.65;;;;;;;;;;5078843;28;20052;-74
2024/03/08 04:46:39;;;;;;;27.13;17.05;;;;;;;;;;5060419;28;20044;-74
2024/03/08 04:49:07;;;;;;;28.92;18.10;;;;;;;;;;5073924;28;20108;-73
2024/03/08 04:51:33;;;;;;;30.75;17.92;;;;;;;;;;5081282;28;20817;-73
2024/03/08 04:54:00;;;;;;;33.05;18.98;;;;;;;;;;5075674;28;20044;-73
2024/03/08 04:56:26;;;;;;;29.25;18.38;;;;;;;;;;5081353;28;20048;-74
2024/03/08 04:58:53;;;;;;;29.35;17.35;;;;;;;;;;5065008;28;20047;-74
2024/03/08 05:01:20;;;;;;;26.05;16.15;;;;;;;;;;5071328;28;20534;-74
2024/03/08 05:03:48;;;;;;;28.63;17.45;;;;;;;;;;5073534;28;20091;-73
2024/03/08 05:06:14;;;;;;;32.65;18.73;;;;;;;;;;5075681;28;20143;-74
2024/03/08 05:08:41;;;;;;;28.77;18.08;;;;;;;;;;5081508;28;20800;-74
2024/03/08 05:11:07;;;;;;;32.03;18.25;;;;;;;;;;5054312;28;20048;-74
2024/03/08 05:13:34;;;;;;;31.63;18.90;;;;;;;;;;5082181;28;20037;-74
2024/03/08 05:16:00;;;;;;;29.25;19.00;;;;;;;;;;5060979;28;20143;-73
2024/03/08 05:18:32;;;;;;;27.70;18.00;;;;;;;;;;5080552;28;20069;-73
2024/03/08 05:20:58;;;;;;;29.65;17.75;;;;;;;;;;5079977;28;20044;-75
2024/03/08 05:23:25;;;;;;;33.03;18.15;;;;;;;;;;5074869;28;20078;-74
2024/03/08 05:25:51;;;;;;;26.65;16.00;;;;;;;;;;5097845;27;20052;-75
2024/03/08 05:28:17;;;;;;;29.83;17.02;;;;;;;;;;5080303;28;20804;-75
2024/03/08 05:30:44;;;;;;;28.05;18.20;;;;;;;;;;5056911;28;20087;-74
2024/03/08 05:33:11;;;;;;;27.73;18.00;;;;;;;;;;5088830;28;20138;-75
2024/03/08 05:35:37;;;;;;;27.02;16.73;;;;;;;;;;5081223;28;20052;-74
2024/03/08 05:38:04;;;;;;;30.23;17.23;;;;;;;;;;5079724;28;20055;-74
2024/03/08 05:40:31;;;;;;;31.38;18.27;;;;;;;;;;5083863;28;20101;-74
2024/03/08 05:42:59;;;;;;;30.80;19.10;;;;;;;;;;5075896;28;20137;-75
2024/03/08 05:45:25;;;;;;;28.33;18.58;;;;;;;;;;5062457;28;20051;-72
2024/03/08 05:47:52;;;;;;;31.63;18.90;;;;;;;;;;5084450;28;20401;-71
2024/03/08 05:50:19;;;;;;;30.08;18.75;;;;;;;;;;5085851;28;20051;-72
2024/03/08 05:52:47;;;;;;;28.23;17.27;;;;;;;;;;5083107;28;20407;-74
2024/03/08 05:55:14;;;;;;;29.73;17.20;;;;;;;;;;5070475;28;20048;-72
2024/03/08 05:57:42;;;;;;;29.00;18.83;;;;;;;;;;5083086;28;20047;-71
2024/03/08 06:00:11;;;;;;;34.38;19.17;;;;;;;;;;5063474;28;20130;-72
2024/03/08 06:02:40;;;;;;;32.15;18.60;;;;;;;;;;5087240;28;20438;-72
2024/03/08 06:05:09;;;;;;;29.13;17.38;;;;;;;;;;5082671;28;20047;-72
2024/03/08 06:07:35;;;;;;;29.52;18.60;;;;;;;;;;5084289;28;20125;-72
2024/03/08 06:10:01;;;;;;;28.38;18.20;;;;;;;;;;5088944;28;20143;-72
2024/03/08 06:12:32;;;;;;;31.45;19.48;;;;;;;;;;5083348;28;20051;-72
2024/03/08 06:14:59;;;;;;;29.20;18.55;;;;;;;;;;5085112;28;20482;-72
2024/03/08 06:17:26;;;;;;;30.45;18.92;;;;;;;;;;5067144;28;20147;-71
2024/03/08 06:19:52;;;;;;;34.85;19.55;;;;;;;;;;5069966;28;20051;-72
2024/03/08 06:22:19;;;;;;;32.50;18.70;;;;;;;;;;5087713;28;20699;-71
2024/03/08 06:24:47;;;;;;;32.00;17.92;;;;;;;;;;5084663;28;20699;-71
2024/03/08 06:27:13;;;;;;;34.38;19.85;;;;;;;;;;5065981;28;20063;-73
2024/03/08 06:29:40;;;;;;;32.47;18.70;;;;;;;;;;5066939;28;20052;-71
2024/03/08 06:32:07;;;;;;;28.58;18.35;;;;;;;;;;5079428;28;20044;-70
2024/03/08 06:34:34;;;;;;;30.42;18.30;;;;;;;;;;5068999;28;20084;-70
2024/03/08 06:37:01;;;;;;;31.52;18.40;;;;;;;;;;5087082;28;20053;-70
2024/03/08 06:39:31;;;;;;;31.92;17.90;;;;;;;;;;5067044;28;20106;-70
2024/03/08 06:41:57;;;;;;;29.15;18.90;;;;;;;;;;5065962;28;20700;-71
2024/03/08 06:44:25;;;;;;;34.60;20.20;;;;;;;;;;5071741;28;20048;-70
2024/03/08 06:46:51;;;;;;;29.40;18.20;;;;;;;;;;5064639;28;20048;-71
2024/03/08 06:49:18;;;;;;;28.40;18.17;;;;;;;;;;5082888;28;20099;-71
2024/03/08 06:51:44;;;;;;;32.67;19.65;;;;;;;;;;5087496;28;20048;-70
2024/03/08 06:54:11;;;;;;;30.77;18.35;;;;;;;;;;5062149;28;20059;-72
2024/03/08 06:56:37;;;;;;;31.73;19.92;;;;;;;;;;5079397;28;20059;-74
2024/03/08 06:59:04;;;;;;;31.80;19.80;;;;;;;;;;5056193;28;20043;-74
2024/03/08 07:01:36;;;;;;;33.38;20.13;;;;;;;;;;5083152;28;20554;-73
2024/03/08 07:04:05;;;;;;;32.97;19.80;;;;;;;;;;5084662;28;20733;-73
2024/03/08 07:06:33;;;;;;;;;;;;;;;;;;5080895;28;20052;-73
2024/03/08 07:08:59;;;;;;;31.98;20.17;;;;;;;;;;5080902;28;20042;-73
2024/03/08 07:11:26;;;;;;;33.85;20.13;;;;;;;;;;5078050;28;20075;-73
2024/03/08 07:13:53;;;;;;;34.10;19.17;;;;;;;;;;5065476;28;20054;-73
2024/03/08 07:16:21;;;;;;;33.22;20.05;;;;;;;;;;5078889;28;20052;-73
2024/03/08 07:18:47;;;;;;;32.15;19.10;;;;;;;;;;5085447;28;20173;-73
2024/03/08 07:21:14;;;;;;;31.50;19.05;;;;;;;;;;5077595;28;20071;-74
2024/03/08 07:23:54;;;;;;;31.08;19.58;;;;;;;;;;5074362;28;20051;-73
2024/03/08 07:26:20;;;;;;;31.45;18.70;;;;;;;;;;5082264;28;20067;-74
2024/03/08 07:28:47;;;;;;;37.28;20.15;;;;;;;;;;5078321;28;20044;-74
2024/03/08 07:34:09;;;;;;;31.83;20.00;;;;;;;;;;4990956;28;20050;-73
2024/03/08 07:36:35;;;;;;;31.85;18.13;;;;;;;;;;5065576;28;20602;-71
2024/03/08 07:39:02;;;;;;;32.13;19.80;;;;;;;;;;5080180;28;20044;-72
2024/03/08 07:41:29;;;;;;;37.25;20.83;;;;;;;;;;5078874;28;20728;-74
2024/03/08 07:43:56;;;;;;;31.25;19.45;;;;;;;;;;5082363;28;20145;-73
2024/03/08 07:46:23;;;;;;;33.80;19.50;;;;;;;;;;5077853;28;20056;-74
2024/03/08 07:48:49;;;;;;;33.38;20.42;;;;;;;;;;5083212;28;20120;-73
2024/03/08 07:51:17;;;;;;;34.47;20.42;;;;;;;;;;5063696;28;20052;-74
2024/03/08 07:53:44;;;;;;;32.33;19.90;;;;;;;;;;5074277;28;20088;-73
2024/03/08 07:56:13;;;;;;;31.88;20.10;;;;;;;;;;5082694;28;20052;-73
2024/03/08 07:58:40;;;;;;;32.80;19.70;;;;;;;;;;5073586;28;20451;-73
2024/03/08 08:01:07;;;;;;;35.00;20.52;;;;;;;;;;5084959;28;20072;-73
2024/03/08 08:03:33;;;;;;;34.70;21.08;;;;;;;;;;5065025;28;20693;-71
2024/03/08 08:05:59;;;;;;;33.80;20.75;;;;;;;;;;5062490;28;20047;-71
2024/03/08 08:08:26;;;;;;;37.70;20.63;;;;;;;;;;5085536;28;20158;-71
2024/03/08 08:10:52;;;;;;;36.78;21.20;;;;;;;;;;5063771;28;20137;-71
2024/03/08 08:13:19;;;;;;;33.03;19.77;;;;;;;;;;5067410;28;20071;-70
2024/03/08 08:15:45;;;;;;;34.80;20.58;;;;;;;;;;5066427;28;20134;-71
2024/03/08 08:18:14;;;;;;;37.50;20.77;;;;;;;;;;5084797;28;20457;-73
2024/03/08 08:20:40;;;;;;;30.27;19.83;;;;;;;;;;5064596;28;20140;-71
2024/03/08 08:23:06;;;;;;;29.00;19.15;;;;;;;;;;5064715;28;20079;-70
2024/03/08 08:25:34;;;;;;;37.50;21.13;;;;;;;;;;5085727;28;20373;-70
2024/03/08 08:28:03;;;;;;;34.33;20.10;;;;;;;;;;5078195;28;20503;-70
2024/03/08 08:30:32;;;;;;;;;;;;;;;;;;5078958;28;20052;-71
2024/03/08 08:33:00;;;;;;;33.63;18.83;;;;;;;;;;5094353;28;20411;-70
2024/03/08 08:35:28;;;;;;;38.85;20.30;;;;;;;;;;5057742;28;20185;-70
2024/03/08 08:37:55;;;;;;;33.70;20.80;;;;;;;;;;5069342;28;20050;-70
2024/03/08 08:40:23;;;;;;;33.42;21.17;;;;;;;;;;5074342;28;20091;-72
2024/03/08 08:42:57;;;;;;;33.85;20.40;;;;;;;;;;5086499;28;20048;-70
2024/03/08 08:45:23;;;;;;;30.52;19.45;;;;;;;;;;5066394;28;20087;-71
2024/03/08 08:47:52;;;;;;;;;;;;;;;;;;5083260;28;20421;-71
2024/03/08 08:50:25;;;;;;;30.52;19.13;;;;;;;;;;5064988;28;20311;-72
2024/03/08 08:52:52;;;;;;;32.95;19.23;;;;;;;;;;5064483;28;20169;-71
2024/03/08 08:55:26;;;;;;;30.27;18.93;;;;;;;;;;5082260;28;20050;-70
2024/03/08 08:57:53;;;;;;;34.55;19.75;;;;;;;;;;5076794;28;20040;-71
2024/03/08 09:00:20;;;;;;;36.03;21.25;;;;;;;;;;5086803;28;20151;-70
2024/03/08 09:02:48;;;;;;;35.67;20.00;;;;;;;;;;5064375;28;20055;-70
2024/03/08 09:05:16;;;;;;;35.45;20.23;;;;;;;;;;5083632;28;20052;-70
2024/03/08 09:07:44;;;;;;;30.38;18.55;;;;;;;;;;5064505;28;20052;-71
2024/03/08 09:10:14;;;;;;;34.45;21.42;;;;;;;;;;5078538;28;20048;-70
2024/03/08 09:12:43;;;;;;;36.17;21.65;;;;;;;;;;5064890;28;20102;-70
2024/03/08 09:15:12;;;;;;;32.67;19.55;;;;;;;;;;5079531;28;20476;-72
2024/03/08 09:17:40;;;;;;;32.20;19.55;;;;;;;;;;5076963;28;20479;-73
2024/03/08 09:20:08;;;;;;;27.55;18.70;;;;;;;;;;5077936;28;20052;-71
2024/03/08 09:22:35;;;;;;;31.02;19.33;;;;;;;;;;5069841;28;20044;-70
2024/03/08 09:25:01;;;;;;;32.33;19.98;;;;;;;;;;5057764;28;20465;-71
2024/03/08 09:27:28;;;;;;;28.35;17.67;;;;;;;;;;5057307;28;20143;-71
2024/03/08 09:29:55;;;;;;;33.50;21.20;;;;;;;;;;5062876;28;20105;-71
2024/03/08 09:32:22;;;;;;;32.42;18.58;;;;;;;;;;5065069;28;20056;-71
2024/03/08 09:34:49;;;;;;;29.10;17.88;;;;;;;;;;5077572;28;20048;-71
2024/03/08 09:37:17;;;;;;;28.73;18.38;;;;;;;;;;5062263;28;20603;-71
2024/03/08 09:39:44;;;;;;;31.65;18.42;;;;;;;;;;5060900;28;20045;-71
2024/03/08 09:42:14;;;;;;;28.48;18.27;;;;;;;;;;5088920;28;20055;-71
2024/03/08 09:44:48;;;;;;;28.45;18.38;;;;;;;;;;5062656;28;20036;-73
2024/03/08 09:47:14;;;;;;;32.10;19.02;;;;;;;;;;5063027;28;20500;-71
2024/03/08 09:49:42;;;;;;;32.10;19.75;;;;;;;;;;5068604;28;20052;-72
2024/03/08 09:52:09;;;;;;;29.75;18.95;;;;;;;;;;5075243;28;20416;-72
2024/03/08 09:54:36;;;;;;;28.20;18.95;;;;;;;;;;5068136;28;20048;-72
2024/03/08 09:57:08;;;;;;;28.27;19.13;;;;;;;;;;5079339;28;20056;-71
2024/03/08 10:02:04;;;;;;;30.33;18.42;;;;;;;;;;5084270;28;20101;-72
2024/03/08 10:04:32;;;;;;;34.88;18.38;;;;;;;;;;5084249;28;21755;-71
2024/03/08 10:07:00;;;;;;;30.63;18.27;;;;;;;;;;5072492;28;20062;-71
2024/03/08 10:09:27;;;;;;;30.75;18.25;;;;;;;;;;5084846;28;20113;-71
2024/03/08 10:12:00;;;;;;;27.15;17.92;;;;;;;;;;5068540;28;20075;-71
2024/03/08 10:14:27;;;;;;;29.58;17.90;;;;;;;;;;5084614;28;20048;-72
2024/03/08 10:16:54;;;;;;;27.40;17.17;;;;;;;;;;5068848;28;20156;-72
2024/03/08 10:19:20;;;;;;;26.90;17.10;;;;;;;;;;5072611;28;20044;-72
2024/03/08 10:21:50;;;;;;;27.38;17.55;;;;;;;;;;5085126;28;20067;-73
2024/03/08 10:24:17;;;;;;;29.15;18.23;;;;;;;;;;5069548;28;20879;-72
2024/03/08 10:26:44;;;;;;;27.38;17.10;;;;;;;;;;5092736;28;20479;-72
2024/03/08 10:29:15;;;;;;;29.80;18.48;;;;;;;;;;5080670;28;20065;-73
2024/03/08 10:31:45;;;;;;;26.52;16.80;;;;;;;;;;5074313;28;20047;-72
2024/03/08 10:34:11;;;;;;;27.17;17.00;;;;;;;;;;5081642;28;20412;-72
2024/03/08 10:36:39;;;;;;;27.63;17.52;;;;;;;;;;5092781;28;20056;-73
2024/03/08 10:39:20;;;;;;;29.77;19.15;;;;;;;;;;5062276;28;20053;-72
2024/03/08 10:41:51;;;;;;;29.23;18.98;;;;;;;;;;5063770;28;20130;-72
2024/03/08 10:44:29;;;;;;;27.25;16.65;;;;;;;;;;5079407;28;20052;-72
2024/03/08 10:47:00;;;;;;;24.53;16.70;;;;;;;;;;5083732;28;20409;-72
2024/03/08 10:49:34;;;;;;;24.08;15.10;;;;;;;;;;5088680;28;20059;-72
2024/03/08 10:52:03;;;;;;;23.88;15.48;;;;;;;;;;5058114;28;20076;-71
2024/03/08 10:54:29;;;;;;;;;;;;;;;;;;5087152;28;20500;-72
2024/03/08 10:56:56;;;;;;;21.45;15.13;;;;;;;;;;5081229;28;19948;-71
2024/03/08 10:59:23;;;;;;;24.40;16.02;;;;;;;;;;5068331;28;20070;-73
2024/03/08 11:01:50;;;;;;;23.58;16.63;;;;;;;;;;5068296;28;20040;-73
2024/03/08 11:04:22;;;;;;;33.05;17.15;;;;;;;;;;5083142;28;20097;-73
2024/03/08 11:06:52;;;;;;;22.42;15.15;;;;;;;;;;5074401;28;20040;-72
2024/03/08 11:09:29;;;;;;;21.15;14.35;;;;;;;;;;5061542;28;20048;-72
2024/03/08 11:12:15;;;;;;;24.00;15.07;;;;;;;;;;5084270;28;20047;-71
2024/03/08 11:14:42;;;;;;;19.98;14.20;;;;;;;;;;5062809;28;20055;-74
2024/03/08 11:17:09;;;;;;;25.23;16.42;;;;;;;;;;5086263;28;20056;-75
2024/03/08 11:19:36;;;;;;;21.63;15.55;;;;;;;;;;5068086;28;20415;-75
2024/03/08 11:22:03;;;;;;;21.10;14.52;;;;;;;;;;5060963;28;20769;-75
2024/03/08 11:24:38;;;;;;;22.08;15.73;;;;;;;;;;5079132;28;20059;-74
2024/03/08 11:27:04;;;;;;;23.20;15.30;;;;;;;;;;5058408;28;20131;-75
2024/03/08 11:29:31;;;;;;;20.90;14.30;;;;;;;;;;5082741;28;20044;-75
2024/03/08 11:32:13;;;;;;;25.15;15.05;;;;;;;;;;5083319;28;20050;-75
2024/03/08 11:34:40;;;;;;;21.40;13.48;;;;;;;;;;5076367;28;20043;-75
2024/03/08 11:37:14;;;;;;;22.42;14.30;;;;;;;;;;5069401;28;20052;-76
2024/03/08 11:39:50;;;;;;;23.50;13.63;;;;;;;;;;5067245;28;20076;-75
2024/03/08 11:42:17;;;;;;;19.70;13.95;;;;;;;;;;5064593;28;20113;-75
2024/03/08 11:44:44;;;;;;;21.73;14.25;;;;;;;;;;5075330;28;20487;-76
2024/03/08 11:47:11;;;;;;;17.95;13.10;;;;;;;;;;5081019;28;20048;-75
2024/03/08 11:49:39;;;;;;;18.10;13.10;;;;;;;;;;5066158;28;20048;-75
2024/03/08 11:52:05;;;;;;;20.33;13.47;;;;;;;;;;5075392;28;20141;-74
2024/03/08 11:54:34;;;;;;;17.92;12.45;;;;;;;;;;5075567;28;20698;-75
2024/03/08 11:57:00;;;;;;;24.20;13.82;;;;;;;;;;5075583;28;20075;-75
2024/03/08 11:59:28;;;;;;;20.63;12.90;;;;;;;;;;5084540;28;20056;-75
2024/03/08 12:02:04;;;;;;;22.98;12.80;;;;;;;;;;5060722;28;20057;-75
2024/03/08 12:04:31;;;;;;;28.40;14.57;;;;;;;;;;5082099;28;20044;-74
2024/03/08 12:07:08;;;;;;;21.23;14.27;;;;;;;;;;5081534;28;20048;-74
2024/03/08 12:09:36;;;;;;;19.95;14.00;;;;;;;;;;5053033;28;20193;-74
2024/03/08 12:12:04;;;;;;;18.05;13.50;;;;;;;;;;5063778;28;20076;-77
2024/03/08 12:14:31;;;;;;;19.87;14.07;;;;;;;;;;5073747;28;20040;-74
2024/03/08 12:16:58;;;;;;;19.17;13.77;;;;;;;;;;5084926;28;20063;-75
2024/03/08 12:19:25;;;;;;;19.90;13.80;;;;;;;;;;5066442;28;20280;-75
2024/03/08 12:21:51;;;;;;;18.92;13.18;;;;;;;;;;5074630;28;20052;-75
2024/03/08 12:24:21;;;;;;;21.08;13.98;;;;;;;;;;5078951;28;20097;-74
2024/03/08 12:26:48;;;;;;;24.17;14.23;;;;;;;;;;5062122;28;20050;-74
2024/03/08 12:29:20;;;;;;;21.02;14.73;;;;;;;;;;5083444;28;20052;-75
2024/03/08 12:31:47;;;;;;;22.00;15.00;;;;;;;;;;5071353;28;20071;-75
2024/03/08 12:34:14;;;;;;;19.55;13.93;;;;;;;;;;5060696;28;20457;-75
2024/03/08 12:36:44;;;;;;;18.08;13.80;;;;;;;;;;5079092;28;20129;-76
2024/03/08 12:39:12;;;;;;;20.75;13.82;;;;;;;;;;5075898;28;20052;-76
2024/03/08 12:41:41;;;;;;;20.73;15.23;;;;;;;;;;5081372;28;20047;-76
2024/03/08 12:44:11;;;;;;;18.80;13.32;;;;;;;;;;5076860;28;20545;-76
2024/03/08 12:46:40;;;;;;;19.95;13.77;;;;;;;;;;5085343;28;20054;-76
2024/03/08 12:49:10;;;;;;;21.30;14.43;;;;;;;;;;5078429;28;20044;-76
2024/03/08 12:51:38;;;;;;;19.73;13.13;;;;;;;;;;5075181;28;20067;-76
2024/03/08 12:54:07;;;;;;;19.30;13.98;;;;;;;;;;5061517;28;21571;-75
2024/03/08 12:56:34;;;;;;;21.20;14.27;;;;;;;;;;5078555;28;20108;-76
2024/03/08 12:59:01;;;;;;;20.08;14.85;;;;;;;;;;5079394;28;20051;-76
2024/03/08 13:01:28;;;;;;;19.92;15.07;;;;;;;;;;5080496;28;20054;-76
2024/03/08 13:03:55;;;;;;;22.38;14.93;;;;;;;;;;5074192;28;20048;-76
2024/03/08 13:06:24;;;;;;;22.52;15.38;;;;;;;;;;5079949;28;20048;-76
2024/03/08 13:08:52;;;;;;;18.73;13.50;;;;;;;;;;5078486;28;20075;-75
2024/03/08 13:11:19;;;;;;;18.38;13.32;;;;;;;;;;5078739;28;20091;-75
2024/03/08 13:13:46;;;;;;;19.13;14.07;;;;;;;;;;5060987;28;20052;-76
2024/03/08 13:16:14;;;;;;;21.50;13.98;;;;;;;;;;5085823;28;20068;-76
2024/03/08 13:18:44;;;;;;;22.75;14.40;;;;;;;;;;5082340;28;20040;-76
2024/03/08 13:21:10;;;;;;;23.75;15.15;;;;;;;;;;5071599;28;20131;-76
2024/03/08 13:23:40;;;;;;;21.63;16.25;;;;;;;;;;5082821;28;20050;-76
2024/03/08 13:26:07;;;;;;;21.05;15.40;;;;;;;;;;5078255;28;20543;-76
2024/03/08 13:28:37;;;;;;;21.23;14.63;;;;;;;;;;5084515;28;20471;-76
2024/03/08 13:31:06;;;;;;;21.40;14.60;;;;;;;;;;5065355;28;20433;-76
2024/03/08 13:33:35;;;;;;;23.45;14.63;;;;;;;;;;5070192;28;20063;-76
2024/03/08 13:36:04;;;;;;;20.27;14.00;;;;;;;;;;5079763;28;20427;-75
2024/03/08 13:38:32;;;;;;;20.40;13.90;;;;;;;;;;5079613;28;20044;-76
2024/03/08 13:40:58;;;;;;;20.80;13.05;;;;;;;;;;5084765;28;20044;-76
2024/03/08 13:43:25;;;;;;;20.05;15.25;;;;;;;;;;5080402;28;20044;-76
2024/03/08 13:45:52;;;;;;;21.38;15.43;;;;;;;;;;5085751;28;20052;-76
2024/03/08 13:48:19;;;;;;;19.30;14.23;;;;;;;;;;5081976;28;20104;-76
2024/03/08 13:50:45;;;;;;;22.38;15.32;;;;;;;;;;5079440;28;20043;-76
2024/03/08 13:53:12;;;;;;;20.23;14.77;;;;;;;;;;5082260;28;20112;-75
2024/03/08 13:55:39;;;;;;;21.70;13.40;;;;;;;;;;5079173;28;20135;-75
2024/03/08 13:58:09;;;;;;;19.88;14.50;;;;;;;;;;5068735;28;20688;-77
2024/03/08 14:00:36;;;;;;;20.02;13.25;;;;;;;;;;5061876;28;20705;-76
2024/03/08 14:03:05;;;;;;;20.70;14.23;;;;;;;;;;5058447;28;20044;-75
2024/03/08 14:05:35;;;;;;;21.65;14.57;;;;;;;;;;5089460;28;20097;-76
2024/03/08 14:08:07;;;;;;;23.60;16.33;;;;;;;;;;5063077;28;20040;-75
2024/03/08 14:10:34;;;;;;;18.55;13.70;;;;;;;;;;5084301;28;20040;-75
2024/03/08 14:13:04;;;;;;;20.67;13.73;;;;;;;;;;5074438;28;20044;-75
2024/03/08 14:15:31;;;;;;;21.95;13.95;;;;;;;;;;5063975;28;20048;-74
2024/03/08 14:17:57;;;;;;;20.65;14.68;;;;;;;;;;5083834;28;20143;-74
2024/03/08 14:20:26;;;;;;;18.88;13.48;;;;;;;;;;5078529;28;20060;-74
2024/03/08 14:22:54;;;;;;;18.15;14.00;;;;;;;;;;5081296;28;20519;-74
2024/03/08 14:25:23;;;;;;;18.35;13.65;;;;;;;;;;5076485;28;20500;-74
2024/03/08 14:27:53;;;;;;;19.30;14.18;;;;;;;;;;5077566;28;20052;-74